createdAt,value
2023-12-07T00:02:16.888Z,89787.70
2023-12-07T00:10:39.126Z,89798.33
2023-12-07T00:19:01.380Z,89809.37
2023-12-07T00:27:25.274Z,89820.15
2023-12-07T00:35:48.222Z,89827.45
2023-12-07T00:44:11.536Z,89846.71
2023-12-07T00:52:33.360Z,89856.20
2023-12-07T01:00:56.143Z,89858.88
2023-12-07T01:09:18.201Z,89875.41
2023-12-07T01:17:42.251Z,89885.80
2023-12-07T01:26:04.961Z,89899.16
2023-12-07T01:34:27.182Z,89919.15
2023-12-07T01:42:53.739Z,89925.63
2023-12-07T01:51:18.078Z,89937.47
2023-12-07T01:59:40.983Z,89938.94
2023-12-07T02:08:04.573Z,89947.30
2023-12-07T02:17:02.533Z,89947.52
2023-12-07T02:26:04.392Z,89948.03
2023-12-07T02:34:43.140Z,89965.36
2023-12-07T02:43:07.207Z,89960.32
2023-12-07T02:51:29.412Z,89952.41
2023-12-07T02:59:51.155Z,89951.37
2023-12-07T03:08:14.272Z,89956.94
2023-12-07T03:16:39.264Z,89964.55
2023-12-07T03:25:01.801Z,89972.57
2023-12-07T03:33:24.243Z,89974.77
2023-12-07T03:41:47.050Z,89972.04
2023-12-07T03:50:12.182Z,89971.59
2023-12-07T03:58:34.289Z,89951.73
2023-12-07T04:06:56.925Z,89951.64
2023-12-07T04:15:20.574Z,89963.36
2023-12-07T04:23:44.071Z,89954.62
2023-12-07T04:32:07.528Z,89960.28
2023-12-07T04:40:30.673Z,89959.87
2023-12-07T04:48:53.673Z,89964.23
2023-12-07T04:57:16.025Z,89954.36
2023-12-07T05:05:38.814Z,89956.32
2023-12-07T05:14:01.646Z,89959.14
2023-12-07T05:22:25.608Z,89952.30
2023-12-07T05:30:48.096Z,89945.05
2023-12-07T05:39:11.856Z,89933.55
2023-12-07T05:47:36.767Z,89936.33
2023-12-07T05:56:04.630Z,89934.83
2023-12-07T06:04:27.533Z,89950.66
2023-12-07T06:12:50.994Z,89951.04
2023-12-07T06:21:14.738Z,89948.02
2023-12-07T06:29:38.543Z,89952.02
2023-12-07T06:38:01.204Z,89944.66
2023-12-07T06:46:24.585Z,89962.86
2023-12-07T06:54:46.873Z,89963.17
2023-12-07T07:03:08.644Z,89964.70
2023-12-07T07:11:30.393Z,89970.31
2023-12-07T07:19:53.275Z,89967.02
2023-12-07T07:28:16.226Z,89990.41
2023-12-07T07:36:38.415Z,89992.42
2023-12-07T07:45:00.400Z,89997.45
2023-12-07T07:53:22.973Z,90013.39
2023-12-07T08:01:47.810Z,90030.97
2023-12-07T08:10:09.991Z,90047.28
2023-12-07T08:18:32.525Z,90083.34
2023-12-07T08:26:54.426Z,90100.01
2023-12-07T08:35:16.724Z,90133.30
2023-12-07T08:43:39.603Z,90155.95
2023-12-07T08:52:16.632Z,90177.30
2023-12-07T09:00:45.511Z,90157.08
2023-12-07T09:09:07.294Z,90164.29
2023-12-07T09:17:29.647Z,90176.38
2023-12-07T09:25:52.912Z,90210.40
2023-12-07T09:34:18.222Z,90199.95
2023-12-07T09:42:41.776Z,90209.73
2023-12-07T09:51:07.657Z,90189.61
2023-12-07T09:59:30.003Z,90234.19
2023-12-07T10:07:53.680Z,90250.52
2023-12-07T10:16:18.307Z,90229.51
2023-12-07T10:24:40.488Z,90225.23
2023-12-07T10:33:09.953Z,90254.80
2023-12-07T10:41:36.232Z,90316.20
2023-12-07T10:50:03.259Z,90274.02
2023-12-07T10:58:25.858Z,90231.06
2023-12-07T11:06:52.811Z,90204.69
2023-12-07T11:15:17.684Z,90198.98
2023-12-07T11:23:39.935Z,90172.05
2023-12-07T11:32:17.019Z,90156.42
2023-12-07T11:40:43.409Z,90139.84
2023-12-07T11:49:16.383Z,90135.67
2023-12-07T11:57:43.343Z,90123.99
2023-12-07T12:06:08.415Z,90115.96
2023-12-07T12:14:30.605Z,90127.04
2023-12-07T12:22:56.537Z,90127.08
2023-12-07T12:31:21.349Z,90127.80
2023-12-07T12:39:43.675Z,90113.81
2023-12-07T12:48:06.744Z,90122.60
2023-12-07T12:56:29.749Z,90091.88
2023-12-07T13:04:51.867Z,90050.23
2023-12-07T13:13:14.462Z,90011.55
2023-12-07T13:21:37.205Z,90003.59
2023-12-07T13:30:02.241Z,89988.98
2023-12-07T13:38:25.247Z,89966.20
2023-12-07T13:46:48.939Z,89935.06
2023-12-07T13:55:12.074Z,89932.39
2023-12-07T14:03:34.325Z,89952.17
2023-12-07T14:11:56.010Z,89932.08
2023-12-07T14:20:34.399Z,89920.52
2023-12-07T14:29:01.946Z,89896.62
2023-12-07T14:37:26.800Z,89895.28
2023-12-07T14:45:50.573Z,89867.81
2023-12-07T14:54:17.663Z,89838.88
2023-12-07T15:02:45.030Z,89815.63
2023-12-07T15:11:08.389Z,89793.35
2023-12-07T15:19:30.545Z,89778.30
2023-12-07T15:27:53.378Z,89770.13
2023-12-07T15:36:15.966Z,89744.35
2023-12-07T15:44:38.443Z,89732.25
2023-12-07T15:53:00.428Z,89717.52
2023-12-07T16:01:22.543Z,89712.55
2023-12-07T16:09:47.549Z,89700.02
2023-12-07T16:18:10.020Z,89703.72
2023-12-07T16:26:32.882Z,89685.80
2023-12-07T16:34:55.042Z,89677.19
2023-12-07T16:43:17.449Z,89666.73
2023-12-07T16:51:40.608Z,89680.11
2023-12-07T17:00:05.916Z,89673.29
2023-12-07T17:08:27.941Z,89664.27
2023-12-07T17:16:53.152Z,89654.00
2023-12-07T17:25:18.111Z,89627.31
2023-12-07T17:33:40.323Z,89621.89
2023-12-07T17:42:06.184Z,89626.92
2023-12-07T17:50:30.026Z,89636.14
2023-12-07T17:58:52.748Z,89624.60
2023-12-07T18:07:15.412Z,89609.64
2023-12-07T18:15:37.602Z,89601.27
2023-12-07T18:24:01.862Z,89580.86
2023-12-07T18:32:25.611Z,89561.80
2023-12-07T18:40:49.581Z,89549.39
2023-12-07T18:49:12.237Z,89524.27
2023-12-07T18:57:35.246Z,89500.08
2023-12-07T19:05:59.129Z,89460.16
2023-12-07T19:14:23.539Z,89446.42
2023-12-07T19:22:46.155Z,89420.05
2023-12-07T19:31:10.331Z,89395.17
2023-12-07T19:39:33.961Z,89363.67
2023-12-07T19:47:55.871Z,89363.81
2023-12-07T19:56:18.112Z,89366.23
2023-12-07T20:04:43.615Z,89359.11
2023-12-07T20:13:06.433Z,89356.80
2023-12-07T20:21:29.076Z,89332.17
2023-12-07T20:29:53.182Z,89308.17
2023-12-07T20:38:15.835Z,89279.82
2023-12-07T20:46:40.682Z,89276.17
2023-12-07T20:55:04.309Z,89259.88
2023-12-07T21:03:26.983Z,89243.14
2023-12-07T21:11:51.893Z,89229.77
2023-12-07T21:20:15.007Z,89237.08
2023-12-07T21:28:38.770Z,89217.24
2023-12-07T21:37:02.382Z,89208.09
2023-12-07T21:45:24.053Z,89207.02
2023-12-07T21:53:46.559Z,89185.94
2023-12-07T22:02:08.770Z,89161.66
2023-12-07T22:10:31.313Z,89137.52
2023-12-07T22:18:55.029Z,89128.21
2023-12-07T22:27:18.941Z,89104.96
2023-12-07T22:35:41.181Z,89081.14
2023-12-07T22:44:04.239Z,89069.59
2023-12-07T22:52:26.391Z,89070.61
2023-12-07T23:00:51.179Z,89053.86
2023-12-07T23:09:13.948Z,89048.04
2023-12-07T23:17:36.422Z,89031.79
2023-12-07T23:26:01.115Z,89011.65
2023-12-07T23:34:25.744Z,88994.13
2023-12-07T23:42:48.321Z,88968.02
2023-12-07T23:51:11.136Z,88945.00
2023-12-07T23:59:33.287Z,88926.27
